Time;durP1;ratioP1;P1;durP2;ratioP2;P2;SDS_P1;SDS_P2;PMS_P1;PMS_P2;Temp;Humidity;BMP_temperature;BMP_pressure;BME280_temperature;BME280_humidity;BME280_pressure;Samples;Min_cycle;Max_cycle;Signal;HPM_P1;HPM_P2
2023/01/17 00:02:06;;;;;;;8.00;5.47;;;4.00;99.90;;;3.79;81.74;97787.25;5083188;28;20236;-65
2023/01/17 00:10:12;;;;;;;7.97;5.50;;;4.00;99.90;;;3.79;82.21;97777.06;5085980;28;20377;-65
2023/01/17 00:12:47;;;;;;;7.20;5.50;;;4.00;99.90;;;3.81;81.95;97781.28;5082697;28;20693;-64
2023/01/17 00:15:18;;;;;;;8.90;6.00;;;4.00;99.90;;;3.82;82.16;97772.75;5087523;28;20199;-62
2023/01/17 00:17:48;;;;;;;5.93;5.00;;;4.00;99.90;;;3.83;82.46;97771.91;5087398;28;20431;-66
2023/01/17 00:26:02;;;;;;;6.57;5.03;;;4.00;99.90;;;3.82;81.43;97759.19;5084075;28;20250;-65
2023/01/17 01:33:42;;;;;;;11.07;8.17;;;4.30;99.90;;;4.08;82.96;97674.53;5077110;28;20614;-61
2023/01/17 01:36:11;;;;;;;12.47;8.40;;;4.30;99.90;;;4.07;83.16;97666.03;5089044;28;20262;-62
2023/01/17 01:38:40;;;;;;;10.40;8.20;;;4.30;99.90;;;4.07;83.20;97663.50;5089832;28;20212;-66
2023/01/17 01:41:08;;;;;;;10.33;7.97;;;4.30;99.90;;;4.09;83.09;97658.38;5086336;28;20277;-63
2023/01/17 01:43:45;;;;;;;10.80;7.87;;;4.30;99.90;;;4.10;83.42;97655.78;5089156;28;20196;-65
2023/01/17 01:46:19;;;;;;;12.10;7.60;;;4.30;99.90;;;4.10;83.53;97639.66;5085796;28;20212;-65
2023/01/17 01:48:52;;;;;;;10.40;7.83;;;4.30;99.90;;;4.12;83.07;97640.44;5083522;28;20196;-64
2023/01/17 01:51:26;;;;;;;9.33;7.20;;;4.40;99.90;;;4.15;83.30;97637.00;5086496;28;20365;-65
2023/01/17 01:54:01;;;;;;;10.57;8.47;;;4.30;99.90;;;4.16;83.24;97626.78;5074716;28;20208;-63
2023/01/17 01:56:30;;;;;;;11.40;7.90;;;4.40;99.90;;;4.18;83.04;97627.56;5089053;28;20346;-62
2023/01/17 01:59:02;;;;;;;10.13;7.97;;;4.40;99.90;;;4.21;83.48;97617.31;5042309;28;20681;-64
2023/01/17 02:01:31;;;;;;;11.70;7.63;;;4.40;99.90;;;4.24;83.28;97616.41;5086263;28;20285;-64
2023/01/17 02:04:00;;;;;;;13.30;8.17;;;4.40;99.90;;;4.28;82.97;97618.81;5086892;28;20657;-65
2023/01/17 02:06:35;;;;;;;9.70;7.70;;;4.40;99.90;;;4.29;82.31;97623.03;5088337;28;20665;-64
2023/01/17 02:09:08;;;;;;;10.17;7.63;;;4.40;99.90;;;4.31;82.57;97631.50;5088384;28;20203;-66
2023/01/17 02:11:38;;;;;;;10.67;7.50;;;4.50;99.90;;;4.31;82.33;97623.84;5088540;28;20618;-63
2023/01/17 02:14:07;;;;;;;10.80;7.30;;;4.50;99.90;;;4.30;82.63;97614.50;5088870;28;20232;-65
2023/01/17 02:16:54;;;;;;;9.87;7.63;;;4.50;99.90;;;4.32;81.98;97609.38;5087813;28;20209;-63
2023/01/17 02:19:52;;;;;;;10.47;7.00;;;4.50;99.90;;;4.28;82.38;97603.53;5085990;28;20236;-65
2023/01/17 02:22:59;;;;;;;10.80;7.67;;;4.50;99.90;;;4.27;82.59;97601.88;5080072;28;20412;-63
2023/01/17 02:25:58;;;;;;;9.40;7.57;;;4.50;99.90;;;4.26;82.20;97618.00;5079394;28;20236;-67
2023/01/17 02:28:46;;;;;;;9.27;7.27;;;4.50;99.90;;;4.27;82.12;97604.41;5078231;28;20265;-64
2023/01/17 02:31:24;;;;;;;10.60;7.17;;;4.50;99.90;;;4.27;82.28;97601.88;5084720;28;20205;-65
2023/01/17 02:34:01;;;;;;;8.33;6.87;;;4.40;99.90;;;4.28;82.67;97592.50;5087191;28;20219;-63
2023/01/17 02:36:33;;;;;;;10.70;7.63;;;4.50;99.90;;;4.28;82.35;97592.50;5087643;28;20208;-64
2023/01/17 02:39:09;;;;;;;11.13;7.53;;;4.50;99.90;;;4.29;82.29;97597.53;5084745;28;20250;-64
2023/01/17 02:41:41;;;;;;;9.50;6.73;;;4.50;99.90;;;4.30;82.60;97594.09;5086719;28;20246;-63
2023/01/17 02:44:15;;;;;;;12.50;7.80;;;4.50;99.90;;;4.30;82.25;97589.00;5086882;28;20603;-62
2023/01/17 02:46:48;;;;;;;10.23;7.73;;;4.50;99.90;;;4.29;82.11;97584.81;5082267;28;20559;-63
2023/01/17 02:49:19;;;;;;;11.90;7.33;;;4.50;99.90;;;4.33;82.25;97595.75;5089761;28;20209;-63
2023/01/17 02:52:17;;;;;;;12.23;7.60;;;4.50;99.90;;;4.35;82.39;97594.84;5086079;28;20661;-63
2023/01/17 02:55:07;;;;;;;10.83;7.27;;;4.50;99.90;;;4.36;81.78;97590.59;5081113;28;20423;-64
2023/01/17 02:57:58;;;;;;;10.27;7.47;;;4.50;99.90;;;4.34;81.54;97583.00;5080806;28;20212;-63
2023/01/17 03:00:35;;;;;;;10.30;7.83;;;4.50;99.90;;;4.34;81.92;97577.88;5084717;28;20273;-66
2023/01/17 03:03:18;;;;;;;11.20;7.47;;;4.50;99.90;;;4.35;81.85;97579.56;5088041;28;20723;-62
2023/01/17 03:05:51;;;;;;;8.93;6.70;;;4.60;99.90;;;4.34;82.14;97577.88;5084256;28;20196;-64
2023/01/17 03:08:21;;;;;;;11.07;7.67;;;4.60;99.90;;;4.34;81.74;97577.88;5085555;28;20240;-64
2023/01/17 03:10:50;;;;;;;10.80;7.27;;;4.60;99.90;;;4.35;82.11;97588.91;5080455;28;20258;-65
2023/01/17 03:13:18;;;;;;;9.30;6.43;;;4.50;99.90;;;4.35;81.87;97582.09;5075512;28;20274;-63
2023/01/17 03:15:47;;;;;;;9.83;7.10;;;4.50;99.90;;;4.36;81.58;97575.28;5088506;28;20200;-64
2023/01/17 03:18:17;;;;;;;10.63;7.33;;;4.50;99.90;;;4.34;81.13;97579.56;5077830;28;20701;-64
2023/01/17 03:20:45;;;;;;;11.30;7.43;;;4.60;99.90;;;4.33;81.00;97576.19;5087852;28;20200;-64
2023/01/17 03:23:14;;;;;;;8.70;6.53;;;4.50;99.90;;;4.33;81.83;97573.66;5082121;28;20209;-64
2023/01/17 03:25:42;;;;;;;9.47;7.33;;;4.50;99.90;;;4.35;81.30;97578.72;5088127;28;20234;-64
2023/01/17 03:28:11;;;;;;;9.40;6.97;;;4.50;99.90;;;4.32;81.15;97571.97;5087668;28;20313;-64
2023/01/17 03:30:39;;;;;;;9.43;7.10;;;4.50;99.90;;;4.33;81.55;97566.00;5089038;28;20653;-62
2023/01/17 03:33:08;;;;;;;10.00;7.30;;;4.50;99.90;;;4.31;81.74;97560.13;5087481;28;20583;-61
2023/01/17 03:35:37;;;;;;;10.43;7.00;;;4.50;99.90;;;4.33;81.17;97560.91;5086473;28;20351;-64
2023/01/17 03:38:06;;;;;;;10.87;7.67;;;4.50;99.90;;;4.32;80.95;97560.94;5090304;28;20686;-63
2023/01/17 03:40:34;;;;;;;11.87;7.40;;;4.50;99.90;;;4.33;81.50;97568.53;5088855;28;20281;-63
2023/01/17 03:43:03;;;;;;;9.07;6.87;;;4.50;99.90;;;4.31;80.93;97562.66;5092264;28;20603;-64
2023/01/17 03:45:31;;;;;;;10.87;7.43;;;4.50;99.90;;;4.32;81.45;97564.34;5091184;28;20244;-65
2023/01/17 03:48:00;;;;;;;9.67;6.83;;;4.50;99.90;;;4.29;81.24;97574.59;5092057;28;20238;-62
2023/01/17 03:50:28;;;;;;;10.03;7.37;;;4.50;99.90;;;4.31;80.57;97572.03;5092804;28;20231;-64
2023/01/17 03:52:58;;;;;;;10.37;7.03;;;4.50;99.90;;;4.28;80.66;97562.75;5092664;28;20631;-64
2023/01/17 03:55:26;;;;;;;10.37;6.80;;;4.50;99.90;;;4.26;81.11;97569.59;5089311;28;20277;-63
2023/01/17 03:57:55;;;;;;;10.17;7.07;;;4.50;99.90;;;4.25;80.58;97559.44;5092659;28;20277;-64
2023/01/17 04:00:23;;;;;;;8.57;7.00;;;4.40;99.90;;;4.25;80.56;97564.53;5091379;28;21003;-63
2023/01/17 04:02:52;;;;;;;8.53;6.67;;;4.40;99.90;;;4.24;80.97;97561.16;5090769;28;20200;-63
2023/01/17 04:05:20;;;;;;;11.17;7.30;;;4.50;99.90;;;4.25;80.83;97567.91;5092087;28;20197;-64
2023/01/17 04:07:49;;;;;;;11.47;7.40;;;4.50;99.90;;;4.24;80.70;97558.59;5092174;28;20251;-65
2023/01/17 04:10:20;;;;;;;9.53;7.13;;;4.40;99.90;;;4.25;80.85;97562.81;5088458;28;20213;-66
2023/01/17 04:12:48;;;;;;;9.87;6.93;;;4.50;99.90;;;4.26;80.26;97569.59;5089325;28;20255;-65
2023/01/17 04:15:17;;;;;;;8.77;6.80;;;4.50;99.90;;;4.24;80.29;97566.25;5092596;28;20643;-64
2023/01/17 04:17:45;;;;;;;7.63;6.30;;;4.40;99.90;;;4.26;80.21;97563.66;5081198;28;20251;-63
2023/01/17 04:20:18;;;;;;;10.60;7.30;;;4.40;99.90;;;4.26;80.08;97564.47;5090642;28;20226;-64
2023/01/17 04:22:46;;;;;;;10.63;7.83;;;4.50;99.90;;;4.27;80.55;97561.09;5090131;28;20269;-68
2023/01/17 04:25:15;;;;;;;9.40;6.77;;;4.40;99.90;;;4.25;80.47;97555.16;5049292;28;20246;-64
2023/01/17 04:27:45;;;;;;;9.47;6.73;;;4.40;99.90;;;4.23;79.70;97566.28;5090316;28;20201;-65
2023/01/17 04:30:13;;;;;;;9.57;7.30;;;4.40;99.90;;;4.19;80.55;97555.31;5089798;28;20208;-64
2023/01/17 04:32:42;;;;;;;11.50;7.40;;;4.40;99.90;;;4.20;80.02;97561.25;5092311;28;20236;-65
2023/01/17 04:35:10;;;;;;;9.73;6.97;;;4.40;99.90;;;4.20;79.94;97567.22;5091144;28;20285;-65
2023/01/17 04:37:39;;;;;;;9.13;6.67;;;4.40;99.90;;;4.20;79.98;97557.03;5089970;28;20240;-64
2023/01/17 04:40:09;;;;;;;10.00;7.07;;;4.40;99.90;;;4.19;79.81;97560.41;5088701;28;20293;-64
2023/01/17 04:42:38;;;;;;;10.07;6.50;;;4.40;99.90;;;4.18;79.66;97565.56;5089152;28;20580;-65
2023/01/17 04:45:09;;;;;;;10.27;7.17;;;4.40;99.90;;;4.18;80.38;97571.50;5089541;28;20277;-65
2023/01/17 04:47:37;;;;;;;8.40;6.77;;;4.40;99.90;;;4.19;79.49;97573.16;5080226;28;20661;-63
2023/01/17 04:50:07;;;;;;;11.23;6.80;;;4.40;99.90;;;4.21;79.68;97585.88;5089764;28;20721;-62
2023/01/17 04:52:36;;;;;;;9.13;6.30;;;4.40;99.90;;;4.21;79.85;97576.53;5088175;28;20980;-65
2023/01/17 04:55:05;;;;;;;9.90;6.50;;;4.40;99.90;;;4.23;80.06;97579.84;5091260;28;20715;-65
2023/01/17 04:57:34;;;;;;;8.33;6.47;;;4.40;99.90;;;4.23;79.86;97579.84;5090582;28;20219;-63
2023/01/17 05:00:03;;;;;;;9.07;6.20;;;4.40;99.90;;;4.24;79.97;97581.53;5090977;28;20266;-64
2023/01/17 05:02:33;;;;;;;9.00;6.77;;;4.40;99.90;;;4.27;79.21;97585.72;5088620;28;20668;-65
2023/01/17 05:05:01;;;;;;;8.03;6.07;;;4.50;99.90;;;4.27;79.35;97588.25;5085335;28;20212;-66
2023/01/17 05:07:29;;;;;;;9.27;6.37;;;4.50;99.90;;;4.28;79.41;97598.44;5081894;28;20262;-64
2023/01/17 05:09:59;;;;;;;9.07;6.87;;;4.40;99.90;;;4.31;79.42;97602.63;5084059;28;20212;-65
2023/01/17 05:12:28;;;;;;;9.50;6.27;;;4.40;99.90;;;4.32;79.48;97599.19;5089737;28;20236;-62
2023/01/17 05:14:57;;;;;;;8.70;6.67;;;4.50;99.90;;;4.31;79.18;97595.81;5091230;28;20229;-63
2023/01/17 05:17:25;;;;;;;8.13;6.20;;;4.50;99.90;;;4.32;79.06;97589.81;5079410;28;20196;-64
2023/01/17 05:19:55;;;;;;;8.73;6.47;;;4.50;99.90;;;4.32;79.20;97594.09;5070772;28;20205;-63
2023/01/17 05:22:23;;;;;;;9.70;6.47;;;4.50;99.90;;;4.28;78.57;97600.16;5069441;28;20501;-65
2023/01/17 05:24:51;;;;;;;10.37;6.80;;;4.40;99.90;;;4.27;79.11;97601.00;5068945;28;20251;-65
2023/01/17 05:27:20;;;;;;;7.77;5.77;;;4.40;99.90;;;4.21;78.40;97594.38;5069141;28;20631;-66
2023/01/17 05:29:48;;;;;;;9.03;6.40;;;4.40;99.90;;;4.19;79.22;97605.47;5068184;28;20235;-62
2023/01/17 05:32:17;;;;;;;9.83;6.40;;;4.40;99.90;;;4.15;79.38;97598.78;5067941;28;20619;-63
2023/01/17 05:34:45;;;;;;;9.40;6.67;;;4.30;99.90;;;4.14;79.21;97602.22;5068537;28;20256;-66
2023/01/17 05:37:15;;;;;;;9.97;6.10;;;4.30;99.90;;;4.11;79.37;97606.50;5070215;28;20274;-66
2023/01/17 05:39:43;;;;;;;7.53;6.03;;;4.30;99.90;;;4.12;79.00;97599.69;5064822;28;20557;-64
2023/01/17 05:42:12;;;;;;;10.03;6.30;;;4.30;99.90;;;4.13;79.55;97596.28;5037323;28;20613;-64
2023/01/17 05:44:40;;;;;;;9.00;6.40;;;4.30;99.90;;;4.12;78.45;97602.22;5070571;28;20209;-64
2023/01/17 05:47:08;;;;;;;7.53;5.87;;;4.30;99.90;;;4.12;79.15;97599.69;5060367;28;20212;-65
2023/01/17 05:49:37;;;;;;;10.50;7.20;;;4.30;99.90;;;4.10;79.05;97604.81;5062919;28;20558;-65
2023/01/17 05:52:06;;;;;;;8.47;6.17;;;4.30;99.90;;;4.09;78.97;97607.41;5066348;28;20643;-65
2023/01/17 05:54:35;;;;;;;9.07;6.27;;;4.20;99.90;;;4.08;78.68;97616.75;5067031;28;20727;-68
2023/01/17 05:57:04;;;;;;;9.20;6.77;;;4.30;99.90;;;4.05;79.79;97605.78;5069247;28;20216;-65
2023/01/17 05:59:32;;;;;;;8.93;5.87;;;4.20;99.90;;;4.02;78.86;97613.53;5068795;28;20240;-66
2023/01/17 06:02:04;;;;;;;9.47;6.30;;;4.20;99.90;;;3.97;78.99;97608.53;5063465;28;20582;-64
2023/01/17 06:04:33;;;;;;;7.10;5.80;;;4.20;99.90;;;3.90;79.72;97613.81;5063255;28;20206;-65
2023/01/17 06:07:01;;;;;;;8.27;6.50;;;4.10;99.90;;;3.93;79.29;97621.41;5063009;28;20201;-65
2023/01/17 06:09:30;;;;;;;11.03;8.20;;;4.10;99.90;;;3.93;79.31;97623.94;5069208;28;20259;-65
2023/01/17 06:11:59;;;;;;;10.87;6.50;;;4.10;99.90;;;3.90;79.21;97622.28;5055976;28;20577;-64
2023/01/17 06:14:28;;;;;;;8.87;6.23;;;4.10;99.90;;;3.92;79.95;97624.81;5070177;28;20662;-64
2023/01/17 06:16:56;;;;;;;9.33;6.40;;;4.10;99.90;;;3.92;80.12;97627.38;5067488;28;20866;-64
2023/01/17 06:19:25;;;;;;;9.70;6.43;;;4.10;99.90;;;3.94;79.27;97629.00;5082810;28;20293;-68
2023/01/17 06:21:53;;;;;;;8.20;6.13;;;4.10;99.90;;;3.95;79.36;97632.41;5084346;28;20240;-67
2023/01/17 06:24:22;;;;;;;9.67;6.20;;;4.10;99.90;;;3.94;79.15;97626.47;5089475;28;20212;-64
2023/01/17 06:26:50;;;;;;;8.47;6.13;;;4.10;99.90;;;3.93;79.18;97618.84;5087377;28;20212;-65
2023/01/17 06:29:20;;;;;;;9.03;6.30;;;4.10;99.90;;;3.92;79.12;97629.91;5088894;28;20231;-64
2023/01/17 06:31:48;;;;;;;7.60;5.80;;;4.10;99.90;;;3.86;79.60;97616.44;5084560;28;20236;-64
2023/01/17 06:34:16;;;;;;;11.50;6.33;;;4.00;99.90;;;3.81;78.93;97615.72;5087310;28;20266;-64
2023/01/17 06:36:45;;;;;;;8.47;6.23;;;4.00;99.90;;;3.77;79.58;97614.13;5085213;28;20585;-66
2023/01/17 06:39:14;;;;;;;9.10;6.50;;;3.90;99.90;;;3.76;80.03;97614.16;5088319;28;20718;-73
2023/01/17 06:41:42;;;;;;;8.83;6.20;;;3.90;99.90;;;3.72;79.96;97618.50;5069078;28;20232;-66
2023/01/17 06:44:11;;;;;;;9.20;6.80;;;3.90;99.90;;;3.68;79.54;97614.31;5081045;28;20213;-65
2023/01/17 06:46:41;;;;;;;8.77;5.97;;;3.90;99.90;;;3.66;80.17;97628.81;5077594;28;20209;-67
2023/01/17 06:49:09;;;;;;;10.03;6.37;;;3.80;99.90;;;3.65;80.19;97619.50;5086038;28;20208;-64
2023/01/17 06:51:38;;;;;;;7.40;5.70;;;3.80;99.90;;;3.63;79.73;97639.91;5084753;28;20698;-63
2023/01/17 06:54:06;;;;;;;10.13;6.70;;;3.80;99.90;;;3.63;79.87;97633.97;5088660;28;20208;-66
2023/01/17 06:56:34;;;;;;;10.10;6.30;;;3.80;99.90;;;3.66;79.95;97651.72;5087936;28;20264;-65
2023/01/17 06:59:04;;;;;;;12.47;6.37;;;3.80;99.90;;;3.68;80.31;97654.22;5087956;28;20208;-66
2023/01/17 07:01:32;;;;;;;9.23;6.20;;;3.80;99.90;;;3.71;79.62;97660.09;5087966;28;20216;-67
2023/01/17 07:04:03;;;;;;;8.67;6.10;;;3.80;99.90;;;3.74;80.62;97667.66;5085854;28;20201;-65
2023/01/17 07:06:32;;;;;;;8.17;6.00;;;3.90;99.90;;;3.75;80.52;97666.78;5087353;28;20291;-65
2023/01/17 07:09:02;;;;;;;10.57;7.07;;;3.90;99.90;;;3.79;80.48;97663.31;5090263;28;20250;-64
2023/01/17 07:11:30;;;;;;;7.97;5.53;;;3.90;99.90;;;3.82;80.24;97664.94;5089957;28;20657;-65
2023/01/17 07:13:59;;;;;;;8.83;6.10;;;3.90;99.90;;;3.84;79.27;97661.50;5090296;28;20235;-64
2023/01/17 07:16:27;;;;;;;8.47;5.90;;;4.00;99.90;;;3.87;79.64;97666.53;5086741;28;20286;-63
2023/01/17 07:18:56;;;;;;;8.80;6.03;;;4.00;99.90;;;3.86;78.85;97664.81;5086457;28;20268;-65
2023/01/17 07:21:26;;;;;;;7.73;5.57;;;4.00;99.90;;;3.87;79.16;97653.78;5090349;28;20209;-65
2023/01/17 07:23:55;;;;;;;9.00;5.33;;;4.00;99.90;;;3.95;79.53;97661.25;5087562;28;20247;-66
2023/01/17 07:26:23;;;;;;;8.10;5.87;;;4.10;99.90;;;4.05;79.30;97657.63;5088310;28;20197;-65
2023/01/17 07:28:52;;;;;;;7.87;5.97;;;4.20;99.90;;;4.14;78.83;97666.75;5086249;28;20201;-65
2023/01/17 07:31:20;;;;;;;9.00;5.97;;;4.30;99.90;;;4.24;78.29;97657.19;5086737;28;20470;-65
2023/01/17 07:33:49;;;;;;;6.87;5.57;;;4.30;99.90;;;4.33;78.00;97651.84;5090355;28;20637;-64
2023/01/17 07:36:17;;;;;;;8.83;6.40;;;4.50;99.90;;;4.39;77.58;97645.75;5070581;28;20254;-66
2023/01/17 07:38:48;;;;;;;6.93;5.03;;;4.50;99.90;;;4.39;76.82;97650.84;5069149;28;20218;-66
2023/01/17 07:41:16;;;;;;;8.73;5.83;;;4.50;99.90;;;4.40;77.11;97647.44;5083825;28;20525;-64
2023/01/17 07:43:47;;;;;;;8.87;5.87;;;4.50;99.90;;;4.46;77.12;97649.81;5087027;28;20236;-66
2023/01/17 07:46:15;;;;;;;7.77;5.80;;;4.60;99.90;;;4.58;76.78;97637.59;5087395;28;20676;-64
2023/01/17 07:48:44;;;;;;;8.73;5.97;;;4.70;99.90;;;4.69;76.34;97636.47;5089238;28;20296;-65
2023/01/17 07:51:13;;;;;;;7.07;5.30;;;4.80;99.90;;;4.77;75.56;97655.78;5072782;28;20215;-67
2023/01/17 07:53:42;;;;;;;7.57;5.73;;;4.90;99.90;;;4.85;75.05;97653.84;5085904;28;20254;-70
2023/01/17 07:56:11;;;;;;;10.20;5.50;;;5.00;99.90;;;4.99;74.83;97662.88;5088032;28;20697;-69
2023/01/17 07:58:40;;;;;;;7.43;5.60;;;5.20;99.90;;;5.08;75.04;97652.38;5078956;28;20209;-68
2023/01/17 08:01:11;;;;;;;8.10;6.00;;;5.20;99.90;;;5.16;73.96;97655.59;5077815;28;20225;-69
2023/01/17 08:03:40;;;;;;;7.73;5.40;;;5.30;99.90;;;5.22;73.18;97665.59;5079180;28;20200;-69
2023/01/17 08:06:18;;;;;;;10.37;6.07;;;5.30;99.90;;;5.32;73.77;97672.13;5080306;28;20203;-68
2023/01/17 08:08:47;;;;;;;8.00;5.83;;;5.50;99.90;;;5.45;72.82;97682.84;5082602;28;20197;-69
2023/01/17 08:11:18;;;;;;;8.77;5.63;;;5.60;99.90;;;5.57;72.85;97686.75;5082290;28;20629;-67
2023/01/17 08:13:46;;;;;;;8.87;5.57;;;5.70;99.90;;;5.68;71.46;97697.47;5083103;28;20212;-67
2023/01/17 08:16:15;;;;;;;7.37;5.33;;;5.80;99.90;;;5.77;71.30;97698.91;5085295;28;20220;-67
2023/01/17 08:18:43;;;;;;;11.53;5.20;;;5.90;99.90;;;5.88;70.98;97690.94;5089485;28;20706;-65
2023/01/17 08:21:15;;;;;;;7.77;5.60;;;6.00;99.90;;;6.07;70.66;97698.88;5088668;28;20208;-65
2023/01/17 08:23:49;;;;;;;8.50;5.77;;;6.20;99.90;;;6.23;69.80;97698.38;5090078;28;20546;-66
2023/01/17 08:26:21;;;;;;;7.17;5.33;;;6.30;99.90;;;6.31;68.79;97703.25;5087415;28;20204;-70
2023/01/17 08:28:55;;;;;;;8.10;5.17;;;6.40;99.90;;;6.29;68.60;97693.03;5082489;28;20292;-67
2023/01/17 08:31:24;;;;;;;6.57;4.90;;;6.40;99.90;;;6.32;67.91;97684.44;5073396;28;20231;-66
2023/01/17 08:33:53;;;;;;;7.83;5.30;;;6.50;99.90;;;6.35;68.09;97684.34;5085041;28;20201;-66
2023/01/17 08:36:24;;;;;;;7.23;5.10;;;6.50;99.90;;;6.44;67.98;97680.66;5088902;28;20221;-68
2023/01/17 08:38:53;;;;;;;5.70;5.10;;;6.60;99.90;;;6.53;67.29;97675.25;5089244;28;20255;-66
2023/01/17 08:41:26;;;;;;;9.37;5.70;;;6.70;99.90;;;6.61;67.43;97678.38;5086999;28;20201;-65
2023/01/17 08:43:54;;;;;;;6.57;5.17;;;6.70;99.90;;;6.67;66.21;97675.63;5092823;28;20201;-66
2023/01/17 08:46:23;;;;;;;8.33;5.83;;;6.80;99.90;;;6.70;65.99;97672.09;5091084;28;20254;-67
2023/01/17 08:48:54;;;;;;;7.93;5.03;;;6.80;99.90;;;6.68;66.31;97661.91;5087329;28;20227;-67
2023/01/17 08:51:25;;;;;;;7.13;5.17;;;6.80;99.90;;;6.73;65.64;97666.88;5090783;28;20722;-66
2023/01/17 08:53:55;;;;;;;5.70;4.33;;;6.90;99.90;;;6.79;65.10;97648.75;5085756;28;20208;-66
2023/01/17 08:56:26;;;;;;;8.57;5.20;;;6.90;99.90;;;6.80;65.24;97652.97;5088518;28;20225;-67
2023/01/17 08:58:54;;;;;;;6.63;5.03;;;6.90;99.90;;;6.91;65.51;97655.16;5090076;28;20254;-66
2023/01/17 09:01:23;;;;;;;7.83;5.33;;;7.00;99.90;;;6.93;64.24;97658.53;5089439;28;20225;-68
2023/01/17 09:03:51;;;;;;;6.93;4.93;;;7.00;99.90;;;6.91;64.82;97665.41;5088059;28;20258;-66
2023/01/17 09:06:20;;;;;;;7.53;5.13;;;7.00;99.90;;;6.82;64.08;97658.91;5084523;28;20271;-65
2023/01/17 09:08:52;;;;;;;7.77;5.13;;;6.90;99.90;;;6.68;64.04;97659.38;5088011;28;20282;-67
2023/01/17 09:11:21;;;;;;;6.57;4.93;;;6.70;99.90;;;6.60;64.63;97661.34;5089407;28;20201;-68
2023/01/17 09:13:50;;;;;;;6.17;4.77;;;6.70;99.90;;;6.52;65.29;97664.19;5090591;28;20196;-65
2023/01/17 09:16:19;;;;;;;7.47;5.27;;;6.60;99.90;;;6.41;65.22;97655.19;5088886;28;20301;-66
2023/01/17 09:18:48;;;;;;;6.80;4.77;;;6.50;99.90;;;6.25;65.38;97660.78;5091402;28;20315;-67
2023/01/17 09:21:17;;;;;;;6.73;5.13;;;6.30;99.90;;;6.09;66.12;97674.97;5084907;28;20246;-66
2023/01/17 09:23:46;;;;;;;5.43;4.60;;;6.20;99.90;;;5.96;66.63;97671.09;5091491;28;20243;-66
2023/01/17 09:26:19;;;;;;;7.27;4.90;;;6.10;99.90;;;5.81;67.04;97664.72;5088858;28;20591;-66
2023/01/17 09:28:50;;;;;;;6.67;5.20;;;6.00;99.90;;;5.73;67.45;97672.63;5086613;28;20208;-67
2023/01/17 09:31:20;;;;;;;8.93;5.33;;;5.90;99.90;;;5.74;68.04;97679.44;5091619;28;20261;-67
2023/01/17 09:33:49;;;;;;;10.33;5.30;;;5.90;99.90;;;5.73;67.55;97687.94;5089837;28;20197;-68
2023/01/17 09:36:18;;;;;;;8.73;5.10;;;5.80;99.90;;;5.66;67.75;97690.72;5089781;28;20201;-67
2023/01/17 09:38:47;;;;;;;8.53;5.20;;;5.80;99.90;;;5.57;68.17;97677.34;5083808;28;20616;-68
2023/01/17 09:41:27;;;;;;;8.53;5.20;;;5.70;99.90;;;5.48;68.35;97687.00;5082372;28;20216;-70
2023/01/17 09:44:04;;;;;;;7.17;4.77;;;5.60;99.90;;;5.40;68.64;97683.84;5080846;28;20196;-66
2023/01/17 09:46:41;;;;;;;7.77;5.50;;;5.60;99.90;;;5.36;69.08;97695.03;5080863;28;20197;-67
2023/01/17 09:49:19;;;;;;;7.00;4.83;;;5.60;99.90;;;5.37;69.15;97689.03;5082181;28;20204;-66
2023/01/17 09:51:47;;;;;;;6.10;5.23;;;5.50;99.90;;;5.33;69.24;97696.75;5088720;28;20193;-68
2023/01/17 09:54:22;;;;;;;7.60;5.80;;;5.50;99.90;;;5.28;68.92;97696.06;5085342;28;20250;-68
2023/01/17 09:57:02;;;;;;;8.73;5.40;;;5.50;99.90;;;5.26;69.25;97695.25;5086440;28;20299;-68
2023/01/17 09:59:45;;;;;;;7.97;5.63;;;5.40;99.90;;;5.20;70.09;97690.34;5090289;28;20252;-67
2023/01/17 10:02:44;;;;;;;8.90;5.60;;;5.40;99.90;;;5.21;69.50;97696.28;5091764;28;20205;-68
2023/01/17 10:05:38;;;;;;;7.83;5.20;;;5.40;99.90;;;5.17;69.67;97702.34;5088152;28;20668;-67
2023/01/17 10:08:23;;;;;;;10.33;5.50;;;5.40;99.90;;;5.17;69.82;97713.41;5079708;28;20238;-68
2023/01/17 10:11:12;;;;;;;8.87;5.70;;;5.30;99.90;;;5.19;69.73;97714.22;5087074;28;20196;-67
2023/01/17 10:13:53;;;;;;;7.67;5.33;;;5.40;99.90;;;5.23;69.83;97725.19;5086524;28;20242;-66
2023/01/17 10:16:40;;;;;;;7.93;5.20;;;5.40;99.90;;;5.22;69.97;97714.09;5083013;28;20302;-67
2023/01/17 10:19:26;;;;;;;8.33;5.83;;;5.40;99.90;;;5.27;70.14;97714.81;5090800;28;20236;-68
2023/01/17 10:22:10;;;;;;;8.20;5.53;;;5.40;99.90;;;5.30;69.99;97712.19;5084485;28;20193;-67
2023/01/17 10:25:15;;;;;;;9.27;5.30;;;5.50;99.90;;;5.33;69.81;97716.34;5090533;28;20621;-67
2023/01/17 10:27:57;;;;;;;7.27;5.27;;;5.50;99.90;;;5.32;69.40;97712.97;5080077;28;20204;-66
2023/01/17 10:30:34;;;;;;;7.63;5.47;;;5.40;99.90;;;5.35;69.68;97727.38;5086442;28;20201;-70
2023/01/17 10:33:13;;;;;;;6.43;4.83;;;5.50;99.90;;;5.33;69.59;97722.28;5085498;28;20538;-68
2023/01/17 10:35:58;;;;;;;9.40;5.50;;;5.50;99.90;;;5.35;69.41;97727.38;5088686;28;20261;-68
2023/01/17 10:38:32;;;;;;;8.63;5.43;;;5.50;99.90;;;5.36;69.59;97718.84;5090908;28;20205;-68
2023/01/17 10:41:08;;;;;;;7.60;5.63;;;5.50;99.90;;;5.38;69.45;97727.31;5088921;28;20204;-68
2023/01/17 10:43:46;;;;;;;6.93;5.60;;;5.60;99.90;;;5.42;69.23;97722.94;5084581;28;20735;-67
2023/01/17 10:46:21;;;;;;;7.40;5.83;;;5.60;99.90;;;5.45;69.14;97717.72;5083262;28;20277;-68
2023/01/17 10:48:52;;;;;;;9.63;5.60;;;5.60;99.90;;;5.45;68.92;97717.72;5089604;28;20254;-67
2023/01/17 10:51:43;;;;;;;6.43;5.20;;;5.60;99.90;;;5.46;69.20;97724.53;5085469;28;20622;-67
2023/01/17 10:54:26;;;;;;;7.73;5.67;;;5.60;99.90;;;5.46;68.67;97724.53;5034726;28;20253;-67
2023/01/17 10:56:55;;;;;;;8.27;5.37;;;5.60;99.90;;;5.46;68.75;97716.88;5085012;28;20561;-68
2023/01/17 10:59:30;;;;;;;8.63;5.37;;;5.70;99.90;;;5.46;68.59;97727.09;5088089;28;20633;-68
2023/01/17 11:02:00;;;;;;;8.83;5.40;;;5.60;99.90;;;5.42;68.43;97722.94;5086542;28;20200;-66
2023/01/17 11:04:36;;;;;;;8.23;5.80;;;5.60;99.90;;;5.40;68.81;97722.13;5085264;28;20668;-68
2023/01/17 11:07:14;;;;;;;8.23;5.80;;;5.60;99.90;;;5.36;68.53;97718.84;5089553;28;20211;-68
2023/01/17 11:09:45;;;;;;;8.03;5.60;;;5.60;99.90;;;5.40;68.37;97724.69;5087884;28;20254;-67
2023/01/17 11:12:28;;;;;;;7.83;5.77;;;5.60;99.90;;;5.43;68.85;97725.44;5087866;28;20193;-67
2023/01/17 11:15:16;;;;;;;8.07;5.73;;;5.60;99.90;;;5.45;68.95;97731.34;5089588;28;20200;-67
2023/01/17 11:17:51;;;;;;;9.57;5.77;;;5.60;99.90;;;5.45;68.79;97733.03;5083420;28;20220;-66
2023/01/17 11:20:31;;;;;;;8.70;5.87;;;5.60;99.90;;;5.45;69.06;97738.16;5085760;28;20649;-65
2023/01/17 11:23:14;;;;;;;10.40;6.47;;;5.60;99.90;;;5.43;68.89;97725.44;5083752;28;20204;-66
2023/01/17 11:25:50;;;;;;;7.20;5.37;;;5.60;99.90;;;5.44;69.44;97727.09;5084981;28;20237;-69
2023/01/17 11:28:24;;;;;;;9.87;5.80;;;5.60;99.90;;;5.47;69.11;97726.19;5089744;28;20204;-70
2023/01/17 11:30:56;;;;;;;10.83;6.07;;;5.60;99.90;;;5.47;68.92;97726.19;5090447;28;20214;-67
2023/01/17 11:33:45;;;;;;;9.87;6.40;;;5.70;99.90;;;5.44;69.35;97724.56;5085457;28;20204;-68
2023/01/17 11:36:26;;;;;;;8.50;5.93;;;5.60;99.90;;;5.48;69.25;97727.84;5036145;28;20196;-68
2023/01/17 11:38:57;;;;;;;7.70;5.50;;;5.70;99.90;;;5.52;69.27;97740.53;5084424;28;20208;-67
2023/01/17 11:41:28;;;;;;;9.10;5.90;;;5.70;99.90;;;5.54;69.14;97735.34;5073443;28;20311;-69
2023/01/17 11:43:58;;;;;;;7.63;5.70;;;5.80;99.90;;;5.61;68.96;97739.41;5084589;28;20208;-66
2023/01/17 11:46:28;;;;;;;8.23;5.97;;;5.80;99.90;;;5.66;68.91;97736.72;5075300;28;20213;-69
2023/01/17 11:48:59;;;;;;;8.63;5.90;;;5.80;99.90;;;5.67;68.83;97741.81;5082611;28;20201;-67
2023/01/17 11:51:32;;;;;;;10.40;7.00;;;5.90;99.90;;;5.69;68.31;97747.69;5077470;28;20200;-68
2023/01/17 11:54:16;;;;;;;9.57;6.33;;;5.80;99.90;;;5.75;68.66;97736.47;5076793;28;20919;-69
2023/01/17 11:56:45;;;;;;;10.03;6.73;;;5.90;99.90;;;5.78;68.49;97744.88;5081627;28;20200;-67
2023/01/17 11:59:33;;;;;;;13.50;7.30;;;6.00;99.90;;;5.84;68.50;97743.00;5030914;28;20315;-67
2023/01/17 12:02:41;;;;;;;9.77;6.73;;;6.00;99.90;;;5.82;68.34;97743.06;5080678;28;20653;-68
2023/01/17 12:05:34;;;;;;;10.90;6.63;;;6.00;99.90;;;5.82;68.45;97756.69;5085868;28;20288;-66
2023/01/17 12:08:19;;;;;;;9.10;6.37;;;6.00;99.90;;;5.82;68.35;97753.28;5088266;28;20205;-67
2023/01/17 12:10:58;;;;;;;8.80;6.23;;;6.00;99.90;;;5.81;68.37;97757.53;5084290;28;20220;-69